Time;durP1;ratioP1;P1;durP2;ratioP2;P2;SDS_P1;SDS_P2;PMS_P1;PMS_P2;Temp;Humidity;BMP_temperature;BMP_pressure;BME280_temperature;BME280_humidity;BME280_pressure;Samples;Min_cycle;Max_cycle;Signal;HPM_P1;HPM_P2
2022/11/07 00:02:03;;;;;;;0.00;0.00;;;;;;;11.09;66.24;98810.19;7352255;19;20730;-58
2022/11/07 00:04:29;;;;;;;0.00;0.00;;;;;;;11.13;66.52;98811.69;7355579;19;21490;-58
2022/11/07 00:06:55;;;;;;;0.10;0.10;;;;;;;11.13;66.80;98802.09;7353724;19;20759;-58
2022/11/07 00:09:20;;;;;;;0.00;0.00;;;;;;;11.14;66.46;98802.94;7356991;19;20085;-57
2022/11/07 00:11:46;;;;;;;0.00;0.00;;;;;;;11.07;65.99;98786.75;7355478;19;20573;-58
2022/11/07 00:14:13;;;;;;;0.00;0.00;;;;;;;11.10;66.12;98785.72;7354674;19;20089;-58
2022/11/07 00:16:38;;;;;;;0.00;0.00;;;;;;;11.23;66.26;98806.81;7356471;19;20745;-56
2022/11/07 00:19:03;;;;;;;0.00;0.00;;;;;;;11.25;66.64;98799.72;7354763;19;20110;-58
2022/11/07 00:21:29;;;;;;;0.00;0.00;;;;;;;11.28;66.71;98796.94;7357125;19;20010;-56
2022/11/07 00:23:54;;;;;;;0.00;0.00;;;;;;;11.29;66.35;98801.22;7356392;19;20458;-58
2022/11/07 00:26:20;;;;;;;0.05;0.05;;;;;;;11.33;66.87;98800.16;7355229;19;20024;-58
2022/11/07 00:28:45;;;;;;;0.00;0.00;;;;;;;11.37;66.34;98812.13;7354735;19;20089;-57
2022/11/07 00:31:12;;;;;;;0.10;0.10;;;;;;;11.40;66.53;98801.47;7356143;19;20606;-59
2022/11/07 00:33:38;;;;;;;0.00;0.00;;;;;;;11.33;66.61;98787.06;7357038;19;20024;-58
2022/11/07 00:36:04;;;;;;;0.08;0.08;;;;;;;11.29;66.48;98770.72;7357901;19;20018;-57
2022/11/07 00:38:29;;;;;;;0.00;0.00;;;;;;;11.51;66.18;98800.88;7359856;19;22397;-58
2022/11/07 00:40:56;;;;;;;0.00;0.00;;;;;;;11.52;66.14;98797.34;7359110;19;20022;-58
2022/11/07 00:43:22;;;;;;;0.10;0.10;;;;;;;11.47;66.31;98781.06;7357066;19;20109;-58
2022/11/07 00:45:48;;;;;;;0.00;0.00;;;;;;;11.62;66.43;98804.56;7358591;19;20014;-58
2022/11/07 00:48:13;;;;;;;0.00;0.00;;;;;;;11.65;66.16;98798.31;7355346;19;20019;-58
2022/11/07 00:50:39;;;;;;;0.00;0.00;;;;;;;11.68;66.01;98793.75;7361293;19;20010;-58
2022/11/07 00:53:05;;;;;;;0.00;0.00;;;;;;;11.72;66.01;98788.34;7355378;19;20660;-57
2022/11/07 00:55:33;;;;;;;0.00;0.00;;;;;;;11.77;66.53;98781.09;7357059;19;20078;-58
2022/11/07 00:57:58;;;;;;;0.00;0.00;;;;;;;11.80;66.40;98780.88;7356102;19;20033;-58
2022/11/07 01:00:24;;;;;;;0.00;0.00;;;;;;;11.83;66.39;98780.75;7358959;19;20006;-57
2022/11/07 01:05:35;;;;;;;0.00;0.00;;;;;;;11.91;66.07;98778.50;7355153;19;20023;-58
2022/11/07 01:08:01;;;;;;;0.00;0.00;;;;;;;11.94;66.21;98781.81;7359098;19;20010;-58
2022/11/07 01:10:26;;;;;;;0.00;0.00;;;;;;;11.98;66.14;98782.47;7357021;19;20557;-58
2022/11/07 01:12:52;;;;;;;0.00;0.00;;;;;;;12.02;66.40;98785.75;7357590;19;20011;-58
2022/11/07 01:15:17;;;;;;;0.05;0.05;;;;;;;12.04;66.74;98784.72;7355953;19;20418;-58
2022/11/07 01:17:42;;;;;;;0.00;0.00;;;;;;;12.03;66.72;98775.19;7352759;19;20010;-58
2022/11/07 01:20:08;;;;;;;0.00;0.00;;;;;;;12.10;66.53;98784.34;7354535;19;20014;-58
2022/11/07 01:22:34;;;;;;;0.00;0.00;;;;;;;12.12;66.59;98774.66;7354839;19;20030;-58
2022/11/07 01:24:59;;;;;;;0.00;0.00;;;;;;;12.14;66.53;98764.91;7358383;19;20018;-56
2022/11/07 01:27:25;;;;;;;0.00;0.00;;;;;;;12.14;66.23;98770.16;7355164;19;20007;-59
2022/11/07 01:29:50;;;;;;;0.00;0.00;;;;;;;12.20;66.77;98769.78;7356286;19;20440;-58
2022/11/07 01:32:15;;;;;;;0.05;0.05;;;;;;;12.18;66.67;98763.81;7354986;19;20354;-59
2022/11/07 01:34:41;;;;;;;0.03;0.03;;;;;;;12.24;66.98;98764.38;7357564;19;20082;-57
2022/11/07 01:37:06;;;;;;;0.00;0.00;;;;;;;12.26;67.07;98759.88;7356726;19;20028;-58
2022/11/07 01:39:32;;;;;;;0.00;0.00;;;;;;;12.28;66.87;98751.00;7358289;19;20038;-58
2022/11/07 01:41:57;;;;;;;0.10;0.10;;;;;;;12.31;67.39;98760.44;7354159;19;20460;-57
2022/11/07 01:44:22;;;;;;;0.00;0.00;;;;;;;12.33;67.42;98763.81;7355767;19;20015;-56
2022/11/07 01:46:49;;;;;;;0.10;0.10;;;;;;;12.34;68.01;98761.09;7354783;19;20006;-58
2022/11/07 01:49:23;;;;;;;0.03;0.03;;;;;;;12.36;68.31;98753.16;7360528;19;20014;-58
2022/11/07 01:51:51;;;;;;;0.08;0.08;;;;;;;12.34;68.26;98750.63;7361399;19;20018;-57
2022/11/07 01:54:20;;;;;;;0.00;0.00;;;;;;;12.25;68.04;98729.41;7363508;19;20010;-57
2022/11/07 01:56:47;;;;;;;0.00;0.00;;;;;;;12.32;68.55;98739.44;7359605;19;20117;-58
2022/11/07 01:59:17;;;;;;;0.00;0.00;;;;;;;12.30;68.63;98740.44;7363379;19;20010;-58
2022/11/07 02:01:42;;;;;;;0.00;0.00;;;;;;;12.27;68.90;98733.63;7362653;19;20017;-57
2022/11/07 02:04:09;;;;;;;0.05;0.05;;;;;;;12.26;68.99;98741.56;7363468;19;20019;-58
2022/11/07 02:06:43;;;;;;;0.00;0.00;;;;;;;12.23;69.75;98728.69;7363656;19;20019;-57
2022/11/07 02:09:08;;;;;;;0.10;0.10;;;;;;;12.20;69.55;98735.75;7361466;19;20027;-57
2022/11/07 02:11:34;;;;;;;0.00;0.00;;;;;;;12.19;69.88;98731.47;7363670;19;20014;-58
2022/11/07 02:13:59;;;;;;;0.00;0.00;;;;;;;12.15;69.94;98724.72;7362772;19;20021;-58
2022/11/07 02:16:24;;;;;;;0.00;0.00;;;;;;;12.15;70.09;98724.72;7364102;19;20002;-57
2022/11/07 02:18:50;;;;;;;0.00;0.00;;;;;;;12.10;70.31;98712.88;7360519;19;20010;-58
2022/11/07 02:21:44;;;;;;;0.00;0.00;;;;;;;12.16;68.18;98718.56;7362515;19;20003;-58
2022/11/07 02:24:16;;;;;;;0.00;0.00;;;;;;;12.06;70.22;98703.50;7260064;19;2004522;-58
2022/11/07 02:26:42;;;;;;;0.00;0.00;;;;;;;12.09;70.97;98714.66;7360599;19;20018;-58
2022/11/07 02:29:10;;;;;;;0.10;0.10;;;;;;;12.03;69.88;98712.41;7360877;19;20526;-58
2022/11/07 02:31:35;;;;;;;0.00;0.00;;;;;;;12.08;70.11;98712.13;7362895;19;20070;-58
2022/11/07 02:34:00;;;;;;;0.10;0.10;;;;;;;12.04;71.49;98708.84;7362201;19;20901;-58
2022/11/07 02:36:26;;;;;;;0.00;0.00;;;;;;;12.04;71.92;98701.00;7361997;19;20007;-58
2022/11/07 02:38:57;;;;;;;0.00;0.00;;;;;;;12.07;71.43;98703.44;7359190;19;20393;-57
2022/11/07 02:41:25;;;;;;;0.00;0.00;;;;;;;12.07;71.48;98705.22;7363496;19;20043;-58
2022/11/07 02:43:55;;;;;;;0.05;0.05;;;;;;;12.06;71.90;98699.13;7358438;19;20495;-58
2022/11/07 02:46:22;;;;;;;0.00;0.00;;;;;;;12.06;71.57;98693.88;7367272;19;20071;-57
2022/11/07 02:48:50;;;;;;;0.00;0.00;;;;;;;12.11;71.66;98688.38;7362676;19;20572;-58
2022/11/07 02:51:16;;;;;;;0.00;0.00;;;;;;;11.99;72.29;98671.66;7362833;19;20026;-58
2022/11/07 02:53:41;;;;;;;0.00;0.00;;;;;;;11.98;72.60;98663.91;7362344;19;21878;-58
2022/11/07 02:56:07;;;;;;;0.00;0.00;;;;;;;12.13;72.03;98673.44;7364778;19;20017;-59
2022/11/07 02:58:33;;;;;;;0.10;0.10;;;;;;;12.14;72.44;98686.44;7353970;19;20029;-59
2022/11/07 03:01:01;;;;;;;0.00;0.00;;;;;;;12.18;73.20;98676.63;7364256;19;20006;-58
2022/11/07 03:03:29;;;;;;;0.00;0.00;;;;;;;12.20;72.85;98670.34;7363109;19;20047;-59
2022/11/07 03:05:55;;;;;;;0.10;0.10;;;;;;;12.23;73.35;98668.50;7359519;19;20007;-59
2022/11/07 03:08:20;;;;;;;0.10;0.10;;;;;;;12.26;72.72;98663.03;7358834;19;20047;-59
2022/11/07 03:10:46;;;;;;;0.00;0.00;;;;;;;12.30;72.01;98648.84;7363744;19;20014;-58
2022/11/07 03:13:11;;;;;;;0.00;0.00;;;;;;;12.33;72.61;98643.44;7361466;19;20478;-59
2022/11/07 03:15:37;;;;;;;0.00;0.00;;;;;;;12.36;72.20;98635.38;7362488;19;20006;-60
2022/11/07 03:18:02;;;;;;;0.10;0.10;;;;;;;12.39;73.02;98638.63;7362430;19;20026;-58
2022/11/07 03:20:27;;;;;;;0.10;0.10;;;;;;;12.41;73.09;98636.75;7360376;19;20010;-59
2022/11/07 03:22:53;;;;;;;0.00;0.00;;;;;;;12.47;72.83;98640.78;7362414;19;20090;-59
2022/11/07 03:25:18;;;;;;;0.00;0.00;;;;;;;12.41;73.43;98628.91;7363872;19;20850;-59
2022/11/07 03:27:50;;;;;;;0.03;0.03;;;;;;;12.54;72.65;98626.34;7358678;19;20014;-59
2022/11/07 03:30:16;;;;;;;0.00;0.00;;;;;;;12.55;73.20;98629.81;7362607;19;20010;-59
2022/11/07 03:32:42;;;;;;;0.10;0.10;;;;;;;12.43;73.39;98593.00;7361068;19;20014;-59
2022/11/07 03:35:08;;;;;;;0.00;0.00;;;;;;;12.58;73.15;98611.31;7360292;19;20024;-59
2022/11/07 03:37:33;;;;;;;0.00;0.00;;;;;;;12.54;73.13;98600.19;7358477;19;20102;-59
2022/11/07 03:39:59;;;;;;;0.10;0.10;;;;;;;12.67;73.44;98621.16;7363032;19;20094;-59
2022/11/07 03:42:24;;;;;;;0.00;0.00;;;;;;;12.69;73.27;98614.91;7362956;19;20014;-59
2022/11/07 03:44:50;;;;;;;0.00;0.00;;;;;;;12.72;73.38;98603.38;7361425;19;20018;-56
2022/11/07 03:47:15;;;;;;;0.00;0.00;;;;;;;12.76;73.44;98594.38;7361367;19;20093;-59
2022/11/07 03:49:41;;;;;;;0.10;0.10;;;;;;;12.82;73.36;98595.75;7361389;19;20010;-59
2022/11/07 03:52:06;;;;;;;0.00;0.00;;;;;;;12.82;73.69;98585.28;7360767;19;20010;-58
2022/11/07 03:54:32;;;;;;;0.00;0.00;;;;;;;12.85;72.98;98592.94;7362733;19;20047;-59
2022/11/07 03:56:57;;;;;;;0.00;0.00;;;;;;;12.92;73.04;98594.22;7361612;19;20762;-59
2022/11/07 03:59:22;;;;;;;0.00;0.00;;;;;;;12.96;73.18;98595.69;7357656;19;21090;-59
2022/11/07 04:01:48;;;;;;;0.00;0.00;;;;;;;13.00;73.37;98584.06;7364119;19;20820;-59
2022/11/07 04:04:13;;;;;;;0.10;0.10;;;;;;;13.03;73.34;98591.75;7357676;19;20078;-59
2022/11/07 04:06:39;;;;;;;0.10;0.10;;;;;;;13.05;73.39;98581.16;7352802;19;20010;-59
2022/11/07 04:09:04;;;;;;;0.10;0.10;;;;;;;12.99;73.04;98569.31;7362167;19;20014;-59
2022/11/07 04:19:41;;;;;;;0.10;0.10;;;;;;;13.15;73.40;98564.72;7348672;19;20912;-58
2022/11/07 04:22:06;;;;;;;0.00;0.00;;;;;;;13.19;73.34;98565.34;7361490;19;21097;-59
2022/11/07 04:24:32;;;;;;;0.10;0.10;;;;;;;13.20;73.19;98570.47;7356732;19;20022;-56
2022/11/07 04:29:41;;;;;;;0.03;0.03;;;;;;;13.22;73.56;98562.53;7360207;19;20021;-59
2022/11/07 04:32:06;;;;;;;0.10;0.10;;;;;;;13.27;73.58;98572.72;7359482;19;20002;-59
2022/11/07 04:34:32;;;;;;;0.00;0.00;;;;;;;13.30;72.88;98567.28;7360855;19;20007;-57
2022/11/07 04:36:57;;;;;;;0.10;0.10;;;;;;;13.26;73.97;98557.94;7358874;19;20558;-59
2022/11/07 04:39:23;;;;;;;0.00;0.00;;;;;;;13.23;73.08;98557.22;7356799;19;20910;-59
2022/11/07 04:41:48;;;;;;;0.03;0.03;;;;;;;13.33;73.36;98556.56;7357662;19;20006;-59
2022/11/07 04:44:13;;;;;;;0.00;0.00;;;;;;;13.34;72.41;98548.63;7359884;19;21006;-59
2022/11/07 04:46:39;;;;;;;0.10;0.10;;;;;;;13.45;73.18;98569.69;7358951;19;20098;-59
2022/11/07 04:49:04;;;;;;;0.00;0.00;;;;;;;13.47;73.92;98559.91;7359354;19;20021;-59
2022/11/07 04:51:30;;;;;;;0.10;0.10;;;;;;;13.49;73.79;98557.22;7359723;19;20014;-59
2022/11/07 04:53:55;;;;;;;0.00;0.00;;;;;;;13.52;73.24;98556.97;7357528;19;20749;-58
2022/11/07 04:56:20;;;;;;;0.00;0.00;;;;;;;13.59;72.83;98568.75;7356548;19;20010;-59
2022/11/07 04:58:46;;;;;;;0.00;0.00;;;;;;;13.62;73.00;98555.41;7355199;19;20033;-59
2022/11/07 05:01:11;;;;;;;0.00;0.00;;;;;;;13.53;73.33;98548.16;7359429;19;20014;-59
2022/11/07 05:03:37;;;;;;;0.00;0.00;;;;;;;13.68;72.59;98552.34;7358561;19;20086;-59
2022/11/07 05:06:03;;;;;;;0.03;0.03;;;;;;;13.68;73.54;98568.09;7355631;19;20024;-59
2022/11/07 05:08:29;;;;;;;0.00;0.00;;;;;;;13.71;72.88;98562.63;7359022;19;20038;-59
2022/11/07 05:10:55;;;;;;;0.00;0.00;;;;;;;13.71;73.90;98557.41;7358814;19;20073;-59
2022/11/07 05:13:20;;;;;;;0.00;0.00;;;;;;;13.75;73.65;98543.13;7360108;19;21720;-58
2022/11/07 05:15:46;;;;;;;0.00;0.00;;;;;;;13.79;73.50;98554.25;7357041;19;20007;-59
2022/11/07 05:18:12;;;;;;;0.10;0.10;;;;;;;13.82;73.37;98563.66;7359860;19;20445;-59
2022/11/07 05:20:38;;;;;;;0.00;0.00;;;;;;;13.87;72.88;98566.81;7357474;19;20011;-59
2022/11/07 05:23:20;;;;;;;0.10;0.10;;;;;;;13.87;73.31;98551.06;7357758;19;20095;-59
2022/11/07 05:25:48;;;;;;;0.00;0.00;;;;;;;13.90;73.55;98550.88;7363616;19;20033;-59
2022/11/07 05:28:17;;;;;;;0.00;0.00;;;;;;;13.93;73.52;98554.09;7364344;19;20022;-59
2022/11/07 05:30:44;;;;;;;0.00;0.00;;;;;;;13.94;73.67;98552.34;7363855;19;20011;-59
2022/11/07 05:33:10;;;;;;;0.10;0.10;;;;;;;13.95;73.62;98548.75;7365543;19;20011;-58
2022/11/07 05:35:36;;;;;;;0.10;0.10;;;;;;;13.95;73.49;98554.00;7363067;19;20485;-59
2022/11/07 05:38:02;;;;;;;0.10;0.10;;;;;;;13.93;73.87;98548.84;7367853;19;20013;-59
2022/11/07 05:40:28;;;;;;;0.00;0.00;;;;;;;13.98;73.35;98553.78;7364106;19;20371;-59
2022/11/07 05:43:09;;;;;;;0.00;0.00;;;;;;;14.03;73.47;98546.41;7365001;19;20006;-57
2022/11/07 05:45:36;;;;;;;0.00;0.00;;;;;;;13.99;73.45;98547.59;7362555;19;20002;-57
2022/11/07 05:48:07;;;;;;;0.10;0.10;;;;;;;14.04;73.68;98542.84;7366033;19;20025;-59
2022/11/07 05:50:33;;;;;;;0.00;0.00;;;;;;;14.03;73.32;98526.25;7363876;19;20748;-59
2022/11/07 05:52:58;;;;;;;0.10;0.10;;;;;;;14.05;73.95;98533.19;7365925;19;20014;-58
2022/11/07 05:55:24;;;;;;;0.10;0.10;;;;;;;14.06;73.65;98529.63;7361796;19;20953;-59
2022/11/07 05:57:50;;;;;;;0.00;0.00;;;;;;;14.03;73.56;98521.00;7363292;19;20129;-59
2022/11/07 06:00:16;;;;;;;0.00;0.00;;;;;;;14.09;73.73;98529.38;7362219;19;20089;-59
2022/11/07 06:02:41;;;;;;;0.05;0.05;;;;;;;14.00;73.12;98520.41;7362883;19;20060;-59
2022/11/07 06:05:07;;;;;;;0.00;0.00;;;;;;;14.12;73.25;98545.75;7363523;19;20041;-59
2022/11/07 06:07:34;;;;;;;0.00;0.00;;;;;;;14.13;73.21;98539.56;7363539;19;20097;-59
2022/11/07 06:09:59;;;;;;;0.00;0.00;;;;;;;14.14;73.54;98522.00;7363867;19;20030;-58
2022/11/07 06:12:25;;;;;;;0.05;0.05;;;;;;;14.14;73.48;98532.50;7362489;19;20011;-59
2022/11/07 06:14:50;;;;;;;0.00;0.00;;;;;;;14.15;73.30;98529.81;7363229;19;20017;-58
2022/11/07 06:17:15;;;;;;;0.10;0.10;;;;;;;14.13;73.32;98512.47;7363040;19;20675;-59
2022/11/07 06:19:41;;;;;;;0.10;0.10;;;;;;;14.17;73.71;98525.25;7361501;19;20105;-57
2022/11/07 06:22:06;;;;;;;0.10;0.10;;;;;;;14.18;73.53;98521.69;7364215;19;20007;-59
2022/11/07 06:24:31;;;;;;;0.10;0.10;;;;;;;14.17;73.48;98517.38;7362995;19;20048;-59
2022/11/07 06:26:57;;;;;;;0.08;0.08;;;;;;;14.19;72.85;98515.50;7359887;19;20042;-59
2022/11/07 06:29:22;;;;;;;0.10;0.10;;;;;;;14.17;73.17;98527.06;7364234;19;20078;-58
2022/11/07 06:31:48;;;;;;;0.00;0.00;;;;;;;14.19;73.57;98518.13;7361458;19;20011;-59
2022/11/07 06:34:13;;;;;;;0.00;0.00;;;;;;;14.12;73.27;98503.75;7362898;19;20762;-58
2022/11/07 06:36:38;;;;;;;0.00;0.00;;;;;;;14.18;73.30;98511.19;7360225;19;20010;-58
2022/11/07 06:39:04;;;;;;;0.10;0.10;;;;;;;14.13;73.88;98510.69;7363233;19;20010;-59
2022/11/07 06:41:29;;;;;;;0.10;0.10;;;;;;;14.18;73.20;98516.44;7362312;19;20016;-58
2022/11/07 06:43:54;;;;;;;0.10;0.10;;;;;;;14.18;73.63;98516.44;7363570;19;20037;-58
2022/11/07 06:46:22;;;;;;;0.00;0.00;;;;;;;14.18;73.42;98519.06;7359544;19;20025;-58
2022/11/07 06:48:48;;;;;;;0.00;0.00;;;;;;;14.20;73.29;98506.69;7364049;19;20047;-59
2022/11/07 06:51:13;;;;;;;0.00;0.00;;;;;;;14.18;73.51;98508.56;7359049;19;20010;-58
2022/11/07 06:53:38;;;;;;;0.10;0.10;;;;;;;14.20;73.15;98511.09;7363622;19;20020;-58
2022/11/07 06:56:06;;;;;;;0.00;0.00;;;;;;;14.25;73.54;98507.19;7353473;19;21325;-59
2022/11/07 06:58:32;;;;;;;0.10;0.10;;;;;;;14.24;73.83;98508.13;7355271;19;20043;-59
2022/11/07 07:01:01;;;;;;;0.00;0.00;;;;;;;14.27;73.33;98513.16;7364704;19;20014;-59
2022/11/07 07:03:27;;;;;;;0.00;0.00;;;;;;;14.20;73.44;98501.44;7360494;19;20626;-58
2022/11/07 07:05:52;;;;;;;0.05;0.05;;;;;;;14.30;73.85;98511.28;7362456;19;20077;-58
2022/11/07 07:08:18;;;;;;;0.00;0.00;;;;;;;14.30;73.84;98511.28;7362073;19;20098;-58
2022/11/07 07:10:44;;;;;;;0.10;0.10;;;;;;;14.34;73.82;98531.06;7361160;19;20014;-59
2022/11/07 07:13:11;;;;;;;0.00;0.00;;;;;;;14.28;73.88;98520.06;7361514;19;20410;-58
2022/11/07 07:15:37;;;;;;;0.00;0.00;;;;;;;14.39;74.01;98527.16;7358207;19;21307;-58
2022/11/07 07:18:03;;;;;;;0.00;0.00;;;;;;;14.37;73.91;98518.56;7360110;19;20015;-58
2022/11/07 07:20:29;;;;;;;0.00;0.00;;;;;;;14.40;73.88;98528.84;7362309;19;20013;-58
2022/11/07 07:22:54;;;;;;;0.10;0.10;;;;;;;14.43;73.70;98543.53;7360435;19;20017;-58
2022/11/07 07:25:20;;;;;;;0.00;0.00;;;;;;;14.31;73.69;98515.56;7361684;19;20026;-58
2022/11/07 07:27:45;;;;;;;0.03;0.03;;;;;;;14.44;73.10;98532.06;7358733;19;20114;-59
2022/11/07 07:30:12;;;;;;;0.00;0.00;;;;;;;14.49;73.08;98548.38;7358899;19;20025;-58
2022/11/07 07:32:37;;;;;;;0.00;0.00;;;;;;;14.49;73.63;98538.69;7360371;19;20006;-58
2022/11/07 07:35:04;;;;;;;0.00;0.00;;;;;;;14.50;73.52;98556.16;7362868;19;21734;-59
2022/11/07 07:37:29;;;;;;;0.03;0.03;;;;;;;14.51;73.61;98538.59;7358534;19;20010;-57
2022/11/07 07:39:55;;;;;;;0.10;0.10;;;;;;;14.52;73.37;98551.63;7359194;19;20078;-58
2022/11/07 07:42:20;;;;;;;0.00;0.00;;;;;;;14.53;73.47;98544.56;7362065;19;20010;-57
2022/11/07 07:44:46;;;;;;;0.10;0.10;;;;;;;14.54;73.69;98546.25;7365119;19;20006;-59
2022/11/07 07:47:11;;;;;;;0.00;0.00;;;;;;;14.56;73.85;98548.78;7362128;19;20011;-59
2022/11/07 07:49:36;;;;;;;0.00;0.00;;;;;;;14.56;73.57;98547.00;7356170;19;20034;-58
2022/11/07 07:52:02;;;;;;;0.00;0.00;;;;;;;14.58;73.79;98560.00;7362422;19;20010;-58
2022/11/07 07:54:27;;;;;;;0.05;0.05;;;;;;;14.61;73.41;98571.13;7361448;19;20484;-59
2022/11/07 07:56:52;;;;;;;0.03;0.03;;;;;;;14.62;73.25;98550.94;7358619;19;20006;-58
2022/11/07 07:59:18;;;;;;;0.00;0.00;;;;;;;14.59;73.35;98549.38;7349868;19;20032;-58
2022/11/07 08:01:43;;;;;;;0.00;0.00;;;;;;;14.61;73.49;98558.00;7354523;19;20017;-59
2022/11/07 08:04:09;;;;;;;0.10;0.10;;;;;;;14.62;73.67;98559.66;7357193;19;20010;-58
2022/11/07 08:06:36;;;;;;;0.00;0.00;;;;;;;14.63;73.54;98566.59;7350427;19;20694;-59
2022/11/07 08:09:02;;;;;;;0.10;0.10;;;;;;;14.53;73.59;98548.03;7356820;19;20006;-58
2022/11/07 08:11:28;;;;;;;0.10;0.10;;;;;;;14.64;73.87;98568.25;7356649;19;20097;-58
2022/11/07 08:13:53;;;;;;;0.10;0.10;;;;;;;14.67;73.23;98575.94;7354663;19;20019;-58
2022/11/07 08:16:18;;;;;;;0.10;0.10;;;;;;;14.70;73.14;98562.56;7354649;19;20028;-58
2022/11/07 08:18:44;;;;;;;0.00;0.00;;;;;;;14.69;73.67;98571.38;7355926;19;20010;-58
2022/11/07 08:21:09;;;;;;;0.10;0.10;;;;;;;14.69;73.92;98571.38;7356722;19;20774;-59
2022/11/07 08:23:35;;;;;;;0.10;0.10;;;;;;;14.72;73.52;98579.06;7350102;19;20017;-59
2022/11/07 08:26:03;;;;;;;0.03;0.03;;;;;;;14.74;73.26;98582.41;7354357;19;20085;-58
2022/11/07 08:28:29;;;;;;;;;;;;;;;14.82;72.75;98583.63;7353135;19;20359;-58
2022/11/07 08:30:56;;;;;;;0.10;0.10;;;;;;;14.63;72.88;98558.72;7356929;19;19947;-58
2022/11/07 08:33:22;;;;;;;0.10;0.10;;;;;;;14.75;73.01;98586.72;7353019;19;20011;-58
2022/11/07 08:35:47;;;;;;;0.00;0.00;;;;;;;14.75;73.58;98584.09;7352645;19;20250;-58
2022/11/07 08:38:13;;;;;;;0.00;0.00;;;;;;;14.75;73.53;98583.22;7352012;19;20015;-59
2022/11/07 08:40:39;;;;;;;0.10;0.10;;;;;;;14.76;73.88;98577.88;7348929;19;20828;-58
2022/11/07 08:43:04;;;;;;;0.10;0.10;;;;;;;14.75;73.64;98581.47;7351440;19;20026;-58
2022/11/07 08:45:30;;;;;;;0.10;0.10;;;;;;;14.76;73.57;98598.91;7344503;19;20042;-59
2022/11/07 08:47:57;;;;;;;0.00;0.00;;;;;;;14.79;73.89;98585.53;7350236;19;20111;-59
2022/11/07 08:50:22;;;;;;;0.00;0.00;;;;;;;14.76;73.95;98583.13;7350070;19;20829;-58
2022/11/07 08:52:47;;;;;;;0.00;0.00;;;;;;;14.82;73.56;98586.25;7350055;19;20010;-58
2022/11/07 08:55:13;;;;;;;0.00;0.00;;;;;;;14.81;73.68;98588.06;7349944;19;20007;-59
2022/11/07 08:57:38;;;;;;;0.00;0.00;;;;;;;14.83;73.64;98598.44;7353976;19;20581;-58
2022/11/07 09:00:05;;;;;;;0.00;0.00;;;;;;;14.87;72.96;98605.16;7358308;19;20111;-58
2022/11/07 09:02:31;;;;;;;0.00;0.00;;;;;;;14.87;73.96;98611.25;7357157;19;20356;-59
2022/11/07 09:04:56;;;;;;;0.08;0.08;;;;;;;14.89;73.92;98598.00;7356068;19;20116;-59
2022/11/07 09:07:21;;;;;;;0.00;0.00;;;;;;;14.92;73.94;98608.28;7356509;19;20016;-58
2022/11/07 09:09:47;;;;;;;0.00;0.00;;;;;;;14.96;73.24;98604.47;7355748;19;20670;-58
2022/11/07 09:12:12;;;;;;;0.00;0.00;;;;;;;14.98;73.82;98602.56;7356069;19;20006;-58
2022/11/07 09:14:38;;;;;;;0.05;0.05;;;;;;;14.98;73.98;98602.56;7359056;19;20011;-58
2022/11/07 09:17:03;;;;;;;0.00;0.00;;;;;;;14.99;73.73;98615.59;7360106;19;20013;-58
2022/11/07 09:19:29;;;;;;;0.00;0.00;;;;;;;15.02;73.73;98609.28;7359030;19;20078;-59
2022/11/07 09:21:55;;;;;;;0.00;0.00;;;;;;;15.06;73.80;98613.34;7360824;19;20026;-59
2022/11/07 09:24:21;;;;;;;0.00;0.00;;;;;;;15.05;73.43;98609.03;7349225;19;20473;-58
2022/11/07 09:26:46;;;;;;;0.08;0.08;;;;;;;15.09;73.38;98605.22;7353459;19;20019;-58
2022/11/07 09:29:12;;;;;;;0.00;0.00;;;;;;;15.11;73.41;98603.34;7355620;19;20025;-58
2022/11/07 09:31:37;;;;;;;0.00;0.00;;;;;;;15.14;73.32;98605.72;7357419;19;20002;-59
2022/11/07 09:34:03;;;;;;;0.10;0.10;;;;;;;15.09;73.84;98615.75;7357357;19;20756;-58
2022/11/07 09:36:28;;;;;;;0.05;0.05;;;;;;;15.20;73.60;98620.19;7355628;19;20070;-59
2022/11/07 09:38:55;;;;;;;0.08;0.08;;;;;;;15.21;73.53;98614.84;7357152;19;20007;-58
2022/11/07 09:41:30;;;;;;;0.03;0.03;;;;;;;15.23;73.34;98612.94;7357801;19;20034;-58
2022/11/07 09:44:08;;;;;;;0.00;0.00;;;;;;;15.30;73.33;98624.66;7357245;19;20014;-58
2022/11/07 09:46:33;;;;;;;0.03;0.03;;;;;;;15.31;72.96;98625.50;7356685;19;20549;-58
2022/11/07 09:49:12;;;;;;;0.08;0.08;;;;;;;15.31;73.41;98618.47;7354969;19;20028;-58
2022/11/07 09:51:43;;;;;;;0.00;0.00;;;;;;;15.40;72.94;98634.47;7359602;19;20624;-58
2022/11/07 09:54:14;;;;;;;0.10;0.10;;;;;;;15.40;73.33;98634.47;7357689;19;20874;-58
2022/11/07 09:56:41;;;;;;;0.00;0.00;;;;;;;15.30;73.28;98634.31;7359026;19;20037;-58
2022/11/07 09:59:14;;;;;;;0.10;0.10;;;;;;;15.42;73.28;98622.06;7358790;19;20879;-59
2022/11/07 10:01:39;;;;;;;0.10;0.10;;;;;;;15.43;73.04;98629.84;7358236;19;20450;-58
2022/11/07 10:04:04;;;;;;;0.00;0.00;;;;;;;15.45;73.10;98632.34;7359165;19;20089;-59
2022/11/07 10:06:59;;;;;;;0.00;0.00;;;;;;;15.50;73.23;98627.56;7359312;19;20010;-58
2022/11/07 10:09:27;;;;;;;0.00;0.00;;;;;;;15.49;73.63;98639.03;7253100;19;2004461;-58
2022/11/07 10:11:55;;;;;;;0.00;0.00;;;;;;;15.57;73.13;98634.06;7358554;19;20208;-58
2022/11/07 10:14:52;;;;;;;0.00;0.00;;;;;;;15.63;72.92;98625.72;7356250;19;20018;-59
2022/11/07 10:17:48;;;;;;;0.10;0.10;;;;;;;15.66;72.61;98646.53;7257077;19;2004353;-59
2022/11/07 10:20:36;;;;;;;0.10;0.10;;;;;;;15.66;72.59;98637.78;7258020;19;2004283;-58
2022/11/07 10:23:18;;;;;;;0.03;0.03;;;;;;;15.67;72.84;98635.06;7356932;19;21237;-59
2022/11/07 10:25:52;;;;;;;0.10;0.10;;;;;;;15.72;72.75;98632.91;7355964;19;20018;-58
2022/11/07 10:28:19;;;;;;;0.00;0.00;;;;;;;15.71;72.84;98628.63;7358529;19;20007;-58
2022/11/07 10:30:50;;;;;;;0.00;0.00;;;;;;;15.73;72.51;98615.34;7353873;19;20493;-58
2022/11/07 10:33:38;;;;;;;0.00;0.00;;;;;;;15.82;72.40;98623.34;7353808;19;20042;-59
2022/11/07 10:36:26;;;;;;;0.00;0.00;;;;;;;15.88;72.51;98621.19;7353407;19;20009;-59
2022/11/07 10:38:52;;;;;;;0.10;0.10;;;;;;;15.89;72.46;98628.13;7353986;19;20014;-58
2022/11/07 10:41:24;;;;;;;0.00;0.00;;;;;;;15.94;72.38;98634.72;7353164;19;20030;-59
2022/11/07 10:44:21;;;;;;;0.00;0.00;;;;;;;16.04;72.03;98624.31;7352463;19;20868;-58
2022/11/07 10:46:47;;;;;;;0.00;0.00;;;;;;;15.94;72.36;98599.66;7252786;19;2004492;-58
2022/11/07 10:49:21;;;;;;;0.00;0.00;;;;;;;16.13;72.13;98607.78;7353034;19;20015;-58
2022/11/07 10:51:47;;;;;;;0.00;0.00;;;;;;;16.16;71.93;98612.81;7353091;19;20026;-56
2022/11/07 10:54:24;;;;;;;0.00;0.00;;;;;;;16.28;72.03;98601.31;7353029;19;20042;-57
2022/11/07 10:57:11;;;;;;;0.10;0.10;;;;;;;16.41;71.33;98589.78;7354391;19;20014;-58
2022/11/07 10:59:38;;;;;;;;;;;;;;;16.48;71.04;98585.72;7354837;19;20010;-57
2022/11/07 11:02:20;;;;;;;;;;;;;;;16.53;70.55;98578.28;7354250;19;19938;-56
2022/11/07 11:04:52;;;;;;;0.10;0.10;;;;;;;16.54;70.20;98580.78;7352438;19;19918;-58
2022/11/07 11:07:18;;;;;;;0.05;0.05;;;;;;;16.45;70.08;98555.16;7354371;19;20764;-58
2022/11/07 11:09:56;;;;;;;0.00;0.00;;;;;;;16.56;70.81;98586.75;7354959;19;20021;-58
2022/11/07 11:12:25;;;;;;;0.00;0.00;;;;;;;16.58;70.84;98570.84;7350037;19;20045;-58
2022/11/07 11:15:20;;;;;;;0.10;0.10;;;;;;;16.64;70.64;98580.88;7348152;19;20002;-59
2022/11/07 11:17:57;;;;;;;0.00;0.00;;;;;;;16.66;70.71;98568.38;7251760;19;2004620;-58
2022/11/07 11:20:30;;;;;;;0.10;0.10;;;;;;;16.73;70.33;98569.63;7351420;19;21159;-58
2022/11/07 11:22:58;;;;;;;0.10;0.10;;;;;;;16.73;70.10;98569.63;7353557;19;20010;-58
2022/11/07 11:25:23;;;;;;;;;;;;;;;16.83;70.00;98559.16;7351912;19;20010;-58
2022/11/07 11:28:05;;;;;;;0.00;0.00;;;;;;;16.88;69.20;98556.09;7354340;19;20825;-58
2022/11/07 11:30:33;;;;;;;0.00;0.00;;;;;;;16.83;68.95;98544.16;7353238;19;20010;-58
2022/11/07 11:33:05;;;;;;;0.10;0.10;;;;;;;16.84;69.32;98560.81;7354784;19;20017;-58
2022/11/07 11:35:33;;;;;;;0.10;0.10;;;;;;;16.88;70.04;98553.47;7352226;19;21034;-56
2022/11/07 11:38:23;;;;;;;0.05;0.05;;;;;;;16.90;69.74;98547.13;7353453;19;20465;-58
2022/11/07 11:41:19;;;;;;;0.00;0.00;;;;;;;16.93;69.60;98524.91;7349993;19;20014;-58
2022/11/07 11:43:52;;;;;;;0.10;0.10;;;;;;;16.93;69.45;98519.66;7251656;19;2004318;-56
2022/11/07 11:46:27;;;;;;;0.00;0.00;;;;;;;16.95;68.85;98528.28;7348925;19;20006;-57
2022/11/07 11:48:59;;;;;;;0.08;0.08;;;;;;;16.96;68.55;98506.22;7349842;19;20602;-57
2022/11/07 11:51:43;;;;;;;0.00;0.00;;;;;;;17.00;68.64;98512.91;7348608;19;20010;-56